createdAt,value
2022-10-26T00:00:41.359Z,58.50
2022-10-26T00:03:58.797Z,56.00
2022-10-26T00:06:35.312Z,56.30
2022-10-26T00:09:28.659Z,59.20
2022-10-26T00:12:08.768Z,58.60
2022-10-26T00:15:53.418Z,64.00
2022-10-26T00:18:23.771Z,75.00
2022-10-26T00:21:24.175Z,81.00
2022-10-26T00:23:53.515Z,130.70
2022-10-26T00:26:30.827Z,115.80
2022-10-26T00:29:05.625Z,104.20
2022-10-26T00:39:15.636Z,89.50
2022-10-26T00:41:48.611Z,67.00
2022-10-26T00:45:20.310Z,75.80
2022-10-26T00:47:57.824Z,70.10
2022-10-26T00:50:51.162Z,77.80
2022-10-26T00:53:27.588Z,90.10
2022-10-26T00:56:23.446Z,90.60
2022-10-26T00:59:26.553Z,83.80
2022-10-26T01:02:03.319Z,84.90
2022-10-26T01:04:37.157Z,86.00
2022-10-26T01:07:55.456Z,94.30
2022-10-26T01:10:32.552Z,76.30
2022-10-26T01:13:29.710Z,81.00
2022-10-26T01:16:41.961Z,79.90
2022-10-26T01:20:08.771Z,71.70
2022-10-26T01:22:41.902Z,75.10
2022-10-26T01:26:00.147Z,81.30
2022-10-26T01:28:44.124Z,98.60
2022-10-26T01:35:03.908Z,109.80
2022-10-26T01:37:40.172Z,103.70
2022-10-26T01:43:49.614Z,64.80
2022-10-26T01:46:27.199Z,74.00
2022-10-26T01:52:37.969Z,71.70
2022-10-26T01:59:43.873Z,74.40
2022-10-26T02:02:59.331Z,71.20
2022-10-26T02:06:14.549Z,70.00
2022-10-26T02:09:03.949Z,63.40
2022-10-26T02:11:41.588Z,66.40
2022-10-26T02:14:47.382Z,67.60
2022-10-26T02:17:50.620Z,64.90
2022-10-26T02:21:03.218Z,64.60
2022-10-26T02:27:22.919Z,59.60
2022-10-26T02:30:00.040Z,57.00
2022-10-26T02:32:47.743Z,67.40
2022-10-26T02:35:31.060Z,61.70
2022-10-26T02:38:11.448Z,69.90
2022-10-26T02:41:07.683Z,95.80
2022-10-26T02:43:48.554Z,78.20
2022-10-26T02:47:12.045Z,79.40
2022-10-26T02:49:44.835Z,87.70
2022-10-26T02:52:30.695Z,88.20
2022-10-26T02:55:19.486Z,93.70
2022-10-26T02:58:41.058Z,98.90
2022-10-26T03:01:10.969Z,86.60
2022-10-26T03:03:45.870Z,86.70
2022-10-26T03:09:51.414Z,94.20
2022-10-26T03:12:30.232Z,92.90
2022-10-26T03:15:02.508Z,100.60
2022-10-26T03:18:45.691Z,102.10
2022-10-26T03:21:22.937Z,103.60
2022-10-26T03:24:00.106Z,121.60
2022-10-26T03:26:38.608Z,143.70
2022-10-26T03:29:10.714Z,128.10
2022-10-26T03:32:11.800Z,114.90
2022-10-26T03:34:42.226Z,103.60
2022-10-26T03:37:40.553Z,105.50
2022-10-26T03:40:59.112Z,99.20
2022-10-26T03:43:31.260Z,104.00
2022-10-26T03:45:59.821Z,103.50
2022-10-26T03:48:55.826Z,100.60
2022-10-26T03:51:51.907Z,100.30
2022-10-26T03:54:26.836Z,92.40
2022-10-26T03:57:19.964Z,90.00
2022-10-26T04:03:10.083Z,85.30
2022-10-26T04:05:47.385Z,97.80
2022-10-26T04:08:41.610Z,92.50
2022-10-26T04:11:36.910Z,87.70
2022-10-26T04:14:11.110Z,85.00
2022-10-26T04:17:07.063Z,82.40
2022-10-26T04:20:12.493Z,80.50
2022-10-26T04:23:31.047Z,83.80
2022-10-26T04:26:09.030Z,90.40
2022-10-26T04:29:55.334Z,91.90
2022-10-26T04:32:48.438Z,83.60
2022-10-26T04:35:24.358Z,77.80
2022-10-26T04:37:55.825Z,76.40
2022-10-26T04:40:33.303Z,84.60
2022-10-26T04:43:09.772Z,80.20
2022-10-26T04:46:14.417Z,71.30
2022-10-26T04:49:27.764Z,70.50
2022-10-26T04:52:00.529Z,73.10
2022-10-26T04:54:55.572Z,75.00
2022-10-26T04:57:27.944Z,71.90
2022-10-26T05:00:05.857Z,74.90
2022-10-26T05:03:00.345Z,70.10
2022-10-26T05:09:16.750Z,59.20
2022-10-26T05:12:14.043Z,67.30
2022-10-26T05:14:47.719Z,64.20
2022-10-26T05:17:17.734Z,65.90
2022-10-26T05:19:54.680Z,63.50
2022-10-26T05:22:56.569Z,63.70
2022-10-26T05:25:29.030Z,66.70
2022-10-26T05:28:04.197Z,89.00
2022-10-26T05:30:58.071Z,125.60
2022-10-26T05:37:18.276Z,137.00
2022-10-26T05:40:15.107Z,145.00
2022-10-26T05:42:47.984Z,134.50
2022-10-26T05:45:21.373Z,142.00
2022-10-26T05:47:51.363Z,120.30
2022-10-26T05:50:45.944Z,113.90
2022-10-26T05:54:05.139Z,109.60
2022-10-26T06:00:26.126Z,97.10
2022-10-26T06:03:17.215Z,116.10
2022-10-26T06:12:39.980Z,88.70
2022-10-26T06:15:48.723Z,107.60
2022-10-26T06:18:31.184Z,108.60
2022-10-26T06:21:21.617Z,100.70
2022-10-26T06:24:56.157Z,89.20
2022-10-26T06:27:42.128Z,87.30
2022-10-26T06:30:12.301Z,78.40
2022-10-26T06:43:11.134Z,88.20
2022-10-26T06:46:15.108Z,85.50
2022-10-26T06:49:10.978Z,84.40
2022-10-26T06:52:18.911Z,96.70
2022-10-26T06:54:55.170Z,94.10
2022-10-26T06:57:40.441Z,91.90
2022-10-26T07:00:29.500Z,89.20
2022-10-26T07:03:03.432Z,81.30
2022-10-26T07:08:54.297Z,79.70
2022-10-26T07:11:25.225Z,81.10
2022-10-26T07:13:59.462Z,77.70
2022-10-26T07:16:58.162Z,75.70
2022-10-26T07:19:28.699Z,73.00
2022-10-26T07:21:59.605Z,67.60
2022-10-26T07:24:32.703Z,70.10
2022-10-26T07:27:04.232Z,68.40
2022-10-26T07:30:02.886Z,63.40
2022-10-26T07:33:02.548Z,51.30
2022-10-26T07:36:00.357Z,54.00
2022-10-26T07:38:57.806Z,52.40
2022-10-26T07:41:56.795Z,47.90
2022-10-26T07:44:27.845Z,44.50
2022-10-26T07:47:22.037Z,43.70
2022-10-26T07:50:15.451Z,41.90
2022-10-26T07:53:10.178Z,40.90
2022-10-26T07:55:42.814Z,39.90
2022-10-26T07:58:15.256Z,36.40
2022-10-26T08:04:05.116Z,36.60
2022-10-26T08:06:37.735Z,33.60
2022-10-26T08:09:06.566Z,34.40
2022-10-26T08:11:38.934Z,32.60
2022-10-26T08:14:11.369Z,31.80
2022-10-26T08:17:35.063Z,30.50
2022-10-26T08:20:14.564Z,29.30
2022-10-26T08:23:09.306Z,27.90
2022-10-26T08:26:08.165Z,30.60
2022-10-26T08:28:44.026Z,31.30
2022-10-26T08:31:19.587Z,28.40
2022-10-26T08:34:16.143Z,32.50
2022-10-26T08:36:51.571Z,28.90
2022-10-26T08:39:27.193Z,28.00
2022-10-26T08:42:03.597Z,28.10
2022-10-26T08:44:40.044Z,28.10
2022-10-26T08:50:27.991Z,27.60
2022-10-26T08:53:12.779Z,21.70
2022-10-26T08:56:13.106Z,21.00
2022-10-26T08:59:15.569Z,18.80
2022-10-26T09:02:39.119Z,16.90
2022-10-26T09:05:45.575Z,19.00
2022-10-26T09:08:46.260Z,18.60
2022-10-26T09:12:03.332Z,12.30
2022-10-26T09:15:13.147Z,11.00
2022-10-26T09:17:53.968Z,10.20
2022-10-26T09:20:47.466Z,9.70
2022-10-26T09:24:07.234Z,10.60
2022-10-26T09:27:13.590Z,10.80
2022-10-26T09:29:45.268Z,8.60
2022-10-26T09:32:43.138Z,8.30
2022-10-26T09:35:18.965Z,9.20
2022-10-26T09:37:51.780Z,8.50
2022-10-26T09:40:36.163Z,8.30
2022-10-26T09:46:08.373Z,8.70
2022-10-26T09:49:07.587Z,7.40
2022-10-26T09:51:41.998Z,8.40
2022-10-26T09:54:19.335Z,6.20
2022-10-26T09:57:16.726Z,6.60
2022-10-26T09:59:58.615Z,8.30
2022-10-26T10:05:56.113Z,6.60
2022-10-26T10:08:29.157Z,6.40
2022-10-26T10:14:29.709Z,8.30
2022-10-26T10:20:58.218Z,6.90
2022-10-26T10:23:34.880Z,7.40
2022-10-26T10:26:34.416Z,7.40
2022-10-26T10:29:05.444Z,7.00
2022-10-26T10:31:35.831Z,7.10
2022-10-26T10:37:27.661Z,6.40
2022-10-26T10:40:02.683Z,6.60
2022-10-26T10:42:35.912Z,5.90
2022-10-26T10:45:34.420Z,5.10
2022-10-26T10:48:39.460Z,4.60
2022-10-26T10:51:15.821Z,5.00
2022-10-26T10:53:54.915Z,5.00
2022-10-26T10:56:55.507Z,4.60
2022-10-26T10:59:54.285Z,4.30
2022-10-26T11:02:55.991Z,4.20
2022-10-26T11:12:33.104Z,3.30
2022-10-26T11:18:22.641Z,3.30
2022-10-26T11:27:24.121Z,4.20
2022-10-26T11:30:19.891Z,3.80
2022-10-26T11:32:58.116Z,3.60
2022-10-26T11:35:32.652Z,3.40
2022-10-26T11:38:28.127Z,3.70
2022-10-26T11:41:17.437Z,3.20
2022-10-26T11:43:46.579Z,3.20
2022-10-26T11:46:20.199Z,3.10
2022-10-26T11:48:57.911Z,2.90
2022-10-26T11:51:41.741Z,2.90
2022-10-26T11:54:30.236Z,3.00
2022-10-26T11:57:05.466Z,2.90
2022-10-26T11:59:43.034Z,3.10
2022-10-26T12:08:30.180Z,2.40
2022-10-26T12:11:05.286Z,2.70
2022-10-26T12:13:59.235Z,2.60
2022-10-26T12:20:11.770Z,4.00
2022-10-26T12:22:44.121Z,8.40
2022-10-26T12:25:23.519Z,10.20
2022-10-26T12:28:43.411Z,6.00
2022-10-26T12:31:48.476Z,3.40
2022-10-26T12:39:11.486Z,4.40
2022-10-26T12:42:06.490Z,5.10
2022-10-26T12:45:30.387Z,5.00
2022-10-26T12:48:39.707Z,5.50
2022-10-26T12:52:09.624Z,5.20
2022-10-26T12:54:46.253Z,4.30
2022-10-26T13:05:21.931Z,3.70
2022-10-26T13:08:29.405Z,3.30
2022-10-26T13:11:38.685Z,3.40
2022-10-26T13:15:26.864Z,2.90
2022-10-26T13:18:42.983Z,2.40
2022-10-26T13:21:48.250Z,2.50
2022-10-26T13:24:17.411Z,2.90
2022-10-26T13:27:40.010Z,3.00
2022-10-26T13:30:49.334Z,2.70
2022-10-26T13:33:53.128Z,3.10
2022-10-26T13:36:31.765Z,3.00
2022-10-26T13:39:59.956Z,4.00
2022-10-26T13:46:03.174Z,3.20
2022-10-26T13:55:43.424Z,2.30
2022-10-26T14:01:30.606Z,2.90
2022-10-26T14:04:29.283Z,2.90
2022-10-26T14:07:14.651Z,2.90
2022-10-26T14:10:03.412Z,3.00
2022-10-26T14:13:27.204Z,2.90
2022-10-26T14:19:06.343Z,2.80
2022-10-26T14:21:53.427Z,2.70
2022-10-26T14:24:45.839Z,2.80
2022-10-26T14:27:34.213Z,2.20
2022-10-26T14:30:32.172Z,3.00
2022-10-26T14:33:50.454Z,2.90
2022-10-26T14:36:31.481Z,2.90
2022-10-26T14:39:32.036Z,2.80
2022-10-26T14:42:20.837Z,3.00
2022-10-26T14:44:55.227Z,3.40
2022-10-26T14:47:35.382Z,4.20
2022-10-26T14:50:47.299Z,4.40
2022-10-26T14:53:21.521Z,4.10
2022-10-26T14:55:58.191Z,3.30
2022-10-26T14:58:35.333Z,3.50
2022-10-26T15:01:48.849Z,4.10
2022-10-26T15:04:39.652Z,4.20
2022-10-26T15:07:43.724Z,4.60
2022-10-26T15:10:52.201Z,4.80
2022-10-26T15:13:51.294Z,4.80
2022-10-26T15:16:53.719Z,4.70
2022-10-26T15:19:28.076Z,5.40
2022-10-26T15:29:40.606Z,6.90
2022-10-26T15:39:30.186Z,6.20
2022-10-26T15:42:02.420Z,11.00
2022-10-26T15:44:34.621Z,10.40
2022-10-26T15:51:46.094Z,15.00
2022-10-26T15:54:42.375Z,14.90
2022-10-26T15:57:21.557Z,52.70
2022-10-26T15:59:56.858Z,40.30
2022-10-26T16:08:06.208Z,12.80
2022-10-26T16:10:44.567Z,13.00
2022-10-26T16:13:15.137Z,18.80
2022-10-26T16:16:14.432Z,31.90
2022-10-26T16:18:44.879Z,17.10
2022-10-26T16:21:38.609Z,44.70
2022-10-26T16:24:14.052Z,201.30
2022-10-26T16:27:07.906Z,28.20
2022-10-26T16:29:49.712Z,24.30
2022-10-26T16:33:12.759Z,29.60
2022-10-26T16:35:45.996Z,24.60
2022-10-26T16:39:05.977Z,27.10
2022-10-26T16:42:03.794Z,35.60
2022-10-26T16:45:48.811Z,44.70
2022-10-26T16:48:48.136Z,88.10
2022-10-26T16:51:28.309Z,82.50
2022-10-26T16:54:26.496Z,78.70
2022-10-26T16:57:20.793Z,82.80
2022-10-26T17:00:19.661Z,95.80
2022-10-26T17:05:51.793Z,81.20
2022-10-26T17:08:27.196Z,59.60
2022-10-26T17:15:19.697Z,69.00
2022-10-26T17:18:19.857Z,58.40
2022-10-26T17:20:54.202Z,52.10
2022-10-26T17:23:28.022Z,55.20
2022-10-26T17:26:05.396Z,58.10
2022-10-26T17:28:36.246Z,56.10
2022-10-26T17:31:12.547Z,62.70
2022-10-26T17:34:31.491Z,57.30
2022-10-26T17:40:04.556Z,68.70
2022-10-26T17:42:37.999Z,103.10
2022-10-26T17:45:39.765Z,153.40
2022-10-26T17:48:12.122Z,69.80
2022-10-26T17:50:46.456Z,67.20
2022-10-26T17:53:15.402Z,75.90
2022-10-26T17:56:15.104Z,76.90
2022-10-26T18:01:51.334Z,112.40
2022-10-26T18:04:26.565Z,88.90
2022-10-26T18:07:24.315Z,74.40
2022-10-26T18:09:52.798Z,71.70
2022-10-26T18:12:26.567Z,71.20
2022-10-26T18:15:25.529Z,77.30
2022-10-26T18:18:06.402Z,81.10
2022-10-26T18:21:07.190Z,80.90
2022-10-26T18:24:03.963Z,88.20
2022-10-26T18:26:39.023Z,93.30
2022-10-26T18:29:14.002Z,94.80
2022-10-26T18:31:49.818Z,97.10
2022-10-26T18:34:24.528Z,119.90
2022-10-26T18:36:57.313Z,108.20
2022-10-26T18:39:52.392Z,116.50
2022-10-26T18:42:31.690Z,106.60
2022-10-26T18:48:34.740Z,111.60
2022-10-26T18:51:34.056Z,114.90
2022-10-26T18:58:45.364Z,120.20
2022-10-26T19:01:43.491Z,121.20
2022-10-26T19:05:05.574Z,130.80
2022-10-26T19:07:41.663Z,135.10
2022-10-26T19:10:46.208Z,183.50
2022-10-26T19:13:15.563Z,182.00
2022-10-26T19:15:50.398Z,168.10
2022-10-26T19:18:28.947Z,156.60
2022-10-26T19:21:31.122Z,145.60
2022-10-26T19:24:40.353Z,137.90
2022-10-26T19:27:12.361Z,137.80
2022-10-26T19:29:47.684Z,149.80
2022-10-26T19:32:41.849Z,141.90
2022-10-26T19:35:19.724Z,141.10
2022-10-26T19:37:52.543Z,148.20
2022-10-26T19:40:49.115Z,143.00
2022-10-26T19:43:47.311Z,123.50
2022-10-26T19:50:29.376Z,126.50
2022-10-26T19:53:22.897Z,126.50
2022-10-26T19:56:43.251Z,124.20
2022-10-26T20:00:02.304Z,123.10
2022-10-26T20:02:40.474Z,116.70
2022-10-26T20:05:11.752Z,110.10
2022-10-26T20:08:08.664Z,122.20
2022-10-26T20:10:46.520Z,134.20
2022-10-26T20:14:07.349Z,145.20
2022-10-26T20:16:42.126Z,149.40
2022-10-26T20:22:39.675Z,138.30
2022-10-26T20:25:12.252Z,130.00
2022-10-26T20:27:45.380Z,109.10
2022-10-26T20:31:03.795Z,112.80
2022-10-26T20:33:57.382Z,110.80
2022-10-26T20:36:35.110Z,110.90
2022-10-26T20:39:21.513Z,112.50
2022-10-26T20:42:21.946Z,106.10
2022-10-26T20:45:43.051Z,104.80
2022-10-26T20:48:47.600Z,135.00
2022-10-26T21:01:47.960Z,115.90
2022-10-26T21:04:43.921Z,107.70
2022-10-26T21:07:26.429Z,110.00
2022-10-26T21:10:47.473Z,108.10
2022-10-26T21:14:16.528Z,101.40
2022-10-26T21:17:20.141Z,105.10
2022-10-26T21:21:04.563Z,107.00
2022-10-26T21:23:40.229Z,102.80
2022-10-26T21:26:39.517Z,107.20
2022-10-26T21:29:08.379Z,121.80
2022-10-26T21:31:40.494Z,152.80
2022-10-26T21:34:18.270Z,127.00
2022-10-26T21:37:10.927Z,107.10
2022-10-26T21:40:06.522Z,125.60
2022-10-26T21:42:59.709Z,138.80
2022-10-26T21:46:23.042Z,136.40
2022-10-26T21:52:10.118Z,168.20
2022-10-26T21:54:43.422Z,138.90
2022-10-26T22:01:33.666Z,133.50
2022-10-26T22:04:28.314Z,141.00
2022-10-26T22:07:01.664Z,159.10
2022-10-26T22:09:45.022Z,150.80
2022-10-26T22:13:00.442Z,153.40
2022-10-26T22:19:02.639Z,145.90
2022-10-26T22:21:39.236Z,149.40
2022-10-26T22:27:40.075Z,126.00
2022-10-26T22:30:17.692Z,117.90
2022-10-26T22:33:13.695Z,149.90
2022-10-26T22:36:11.493Z,145.10
2022-10-26T22:39:08.580Z,84.10
2022-10-26T22:42:05.220Z,90.20
2022-10-26T22:45:02.693Z,93.90
2022-10-26T22:47:37.228Z,102.60
2022-10-26T22:50:34.147Z,116.80
2022-10-26T22:53:56.456Z,103.80
2022-10-26T22:56:50.954Z,105.20
2022-10-26T23:00:09.234Z,106.00
2022-10-26T23:06:44.802Z,108.20
2022-10-26T23:09:40.470Z,103.40
2022-10-26T23:12:35.242Z,95.50
2022-10-26T23:18:39.119Z,100.80
2022-10-26T23:21:34.706Z,89.70
2022-10-26T23:24:15.287Z,95.40
2022-10-26T23:27:10.076Z,89.80
2022-10-26T23:30:53.972Z,93.30
2022-10-26T23:33:28.045Z,94.40
2022-10-26T23:36:10.726Z,102.80
2022-10-26T23:38:39.343Z,99.20
2022-10-26T23:41:45.513Z,99.60
2022-10-26T23:44:43.172Z,101.00
2022-10-26T23:47:13.005Z,98.30
2022-10-26T23:49:52.943Z,104.10
2022-10-26T23:53:17.915Z,100.50
2022-10-26T23:56:38.230Z,99.80
2022-10-26T23:59:16.863Z,124.00
